Time;durP1;ratioP1;P1;durP2;ratioP2;P2;SDS_P1;SDS_P2;PMS_P1;PMS_P2;Temp;Humidity;BMP_temperature;BMP_pressure;BME280_temperature;BME280_humidity;BME280_pressure;Samples;Min_cycle;Max_cycle;Signal;HPM_P1;HPM_P2
2021/03/25 00:01:29;;;;;;;37.42;17.77;;;;;;;25.38;17.89;98724.06;5068827;28;20075;-90
2021/03/25 00:03:56;;;;;;;40.47;18.75;;;;;;;25.40;17.92;98721.63;5061960;28;20031;-90
2021/03/25 00:06:27;;;;;;;43.25;20.02;;;;;;;25.16;18.13;98720.00;5070556;28;20538;-90
2021/03/25 00:08:53;;;;;;;;;;;;;;;25.10;18.20;98716.91;5061744;28;20438;-90
2021/03/25 00:11:19;;;;;;;38.25;17.48;;;;;;;25.66;17.90;98711.56;5054741;28;19959;-90
2021/03/25 00:13:46;;;;;;;42.47;18.98;;;;;;;25.80;17.37;98716.91;5067563;28;20036;-90
2021/03/25 00:16:13;;;;;;;42.28;19.23;;;;;;;25.82;17.59;98706.03;5064471;28;20042;-89
2021/03/25 00:18:40;;;;;;;41.38;18.48;;;;;;;25.64;17.74;98700.75;5058669;28;20079;-90
2021/03/25 00:21:08;;;;;;;39.40;17.40;;;;;;;25.10;18.08;98707.69;5061967;28;20041;-89
2021/03/25 00:23:35;;;;;;;35.10;17.00;;;;;;;25.16;18.29;98708.75;5057464;28;20037;-89
2021/03/25 00:26:01;;;;;;;35.17;16.55;;;;;;;25.45;18.03;98703.50;5055462;28;20030;-89
2021/03/25 00:28:27;;;;;;;36.50;17.48;;;;;;;25.52;17.69;98707.00;5056040;28;20055;-89
2021/03/25 00:30:54;;;;;;;39.95;18.55;;;;;;;25.61;17.77;98697.97;5049641;28;20025;-89
2021/03/25 00:33:22;;;;;;;37.75;18.23;;;;;;;25.38;18.10;98708.00;5044531;28;20033;-89
2021/03/25 00:35:49;;;;;;;41.35;18.63;;;;;;;25.22;18.21;98707.09;5064626;28;20085;-89
2021/03/25 00:38:16;;;;;;;35.63;16.75;;;;;;;25.00;18.31;98695.38;5052622;28;20521;-89
2021/03/25 00:40:47;;;;;;;39.90;17.77;;;;;;;24.73;18.40;98701.00;5056757;28;20081;-90
2021/03/25 00:43:15;;;;;;;43.50;19.27;;;;;;;24.55;18.75;98705.28;5055135;28;20041;-89
2021/03/25 00:45:46;;;;;;;38.10;17.30;;;;;;;24.78;18.65;98702.56;5055632;28;20033;-89
2021/03/25 00:48:14;;;;;;;37.97;17.30;;;;;;;24.88;18.54;98700.81;5063010;28;20035;-89
2021/03/25 00:50:43;;;;;;;38.22;16.05;;;;;;;24.70;18.51;98693.41;5062177;28;20112;-90
2021/03/25 00:53:11;;;;;;;39.85;17.88;;;;;;;24.75;18.71;98697.75;5064904;28;20071;-89
2021/03/25 00:55:38;;;;;;;42.70;19.10;;;;;;;24.81;18.58;98695.31;5062682;28;20020;-89
2021/03/25 00:58:04;;;;;;;43.47;17.77;;;;;;;24.55;18.71;98694.81;5057774;28;20540;-90
2021/03/25 01:00:34;;;;;;;31.45;15.80;;;;;;;24.26;19.25;98690.81;5038260;28;20122;-90
2021/03/25 01:03:00;;;;;;;37.15;17.08;;;;;;;24.03;19.44;98690.69;5055026;28;20033;-90
2021/03/25 01:05:28;;;;;;;38.88;16.25;;;;;;;24.30;19.13;98685.16;5055696;28;20029;-90
2021/03/25 01:08:33;;;;;;;36.80;16.90;;;;;;;24.58;18.69;98684.75;5038428;28;20040;-90
2021/03/25 01:11:01;;;;;;;34.95;17.33;;;;;;;24.87;18.46;98685.97;5062286;28;20098;-90
2021/03/25 01:13:33;;;;;;;31.98;14.73;;;;;;;24.83;18.64;98690.84;5077620;28;20566;-90
2021/03/25 01:16:00;;;;;;;31.98;14.73;;;;;;;24.81;18.58;98686.88;5093695;28;20493;-90
2021/03/25 01:18:29;;;;;;;30.45;14.27;;;;;;;24.83;18.46;98681.63;5097696;28;20028;-91
2021/03/25 01:20:55;;;;;;;34.50;15.98;;;;;;;24.83;18.38;98676.81;5095610;28;20032;-90
2021/03/25 01:23:22;;;;;;;33.90;16.05;;;;;;;25.00;18.43;98675.72;5100729;28;20032;-90
2021/03/25 01:25:49;;;;;;;34.22;15.75;;;;;;;25.15;18.06;98673.47;5102311;28;20040;-90
2021/03/25 01:28:16;;;;;;;35.72;16.85;;;;;;;25.34;17.88;98670.69;5099785;28;20403;-90
2021/03/25 01:30:44;;;;;;;35.67;17.17;;;;;;;25.62;17.68;98669.44;5102862;28;20447;-90
2021/03/25 01:33:14;;;;;;;34.95;14.82;;;;;;;25.72;17.82;98664.84;5105693;28;20028;-90
2021/03/25 01:35:41;;;;;;;36.00;17.15;;;;;;;25.75;17.62;98664.75;5092211;28;20127;-90
2021/03/25 01:38:09;;;;;;;30.92;13.93;;;;;;;25.67;17.52;98663.31;5099808;28;20028;-90
2021/03/25 01:40:41;;;;;;;32.65;15.27;;;;;;;25.67;17.83;98660.50;5106297;28;20047;-91
2021/03/25 01:43:19;;;;;;;34.50;14.25;;;;;;;25.70;17.54;98659.63;5094076;28;20503;-88
2021/03/25 01:46:13;;;;;;;33.33;14.35;;;;;;;25.97;17.18;98657.50;5097116;28;20070;-87
2021/03/25 01:48:41;;;;;;;36.50;16.30;;;;;;;26.37;16.89;98646.22;5057824;28;20028;-88
2021/03/25 01:51:29;;;;;;;31.52;15.48;;;;;;;26.53;16.90;98652.69;5089709;28;20035;-87
2021/03/25 01:54:07;;;;;;;32.83;14.68;;;;;;;26.59;16.55;98648.13;5096415;28;20032;-87
2021/03/25 01:56:45;;;;;;;33.47;14.98;;;;;;;26.64;16.71;98649.63;5102213;28;20036;-87
2021/03/25 01:59:25;;;;;;;31.10;16.08;;;;;;;26.68;16.52;98644.69;5081209;28;20035;-87
2021/03/25 02:02:13;;;;;;;36.60;16.85;;;;;;;26.74;16.70;98646.56;5087934;28;20428;-88
2021/03/25 02:05:11;;;;;;;33.30;14.57;;;;;;;26.73;16.56;98649.81;5096790;28;20090;-88
2021/03/25 02:07:37;;;;;;;28.00;14.07;;;;;;;26.77;16.41;98647.72;5106353;28;20045;-88
2021/03/25 02:10:20;;;;;;;25.02;11.88;;;;;;;26.54;16.71;98645.81;5101811;28;20055;-88
2021/03/25 02:13:11;;;;;;;33.30;15.05;;;;;;;26.48;16.77;98638.31;5091360;28;20047;-89
2021/03/25 02:15:58;;;;;;;30.98;14.73;;;;;;;26.15;16.87;98642.28;5104068;28;20472;-89
2021/03/25 02:18:53;;;;;;;30.42;13.07;;;;;;;25.85;17.38;98637.66;5074752;28;20064;-89
2021/03/25 02:21:44;;;;;;;28.15;13.43;;;;;;;25.94;17.34;98640.69;5096564;28;20081;-89
2021/03/25 02:24:13;;;;;;;29.10;13.93;;;;;;;26.08;17.23;98646.81;5101455;28;20035;-89
2021/03/25 02:27:16;;;;;;;29.00;13.63;;;;;;;26.14;17.17;98637.88;5093152;28;20430;-88
2021/03/25 02:29:53;;;;;;;32.58;13.93;;;;;;;25.96;17.27;98630.56;5028071;28;20044;-89
2021/03/25 02:32:28;;;;;;;26.83;14.27;;;;;;;26.16;17.11;98632.63;5100495;28;20104;-89
2021/03/25 02:34:59;;;;;;;35.33;15.13;;;;;;;26.34;17.02;98639.44;5086638;28;20506;-89
2021/03/25 02:37:29;;;;;;;28.00;12.55;;;;;;;26.29;16.90;98634.31;5085456;28;20414;-89
2021/03/25 02:40:16;;;;;;;32.55;14.30;;;;;;;26.03;17.11;98638.88;5079148;28;20070;-89
2021/03/25 02:42:46;;;;;;;31.80;15.02;;;;;;;26.33;16.83;98631.41;5099812;28;20044;-89
2021/03/25 02:45:23;;;;;;;26.02;14.40;;;;;;;26.38;16.75;98633.72;5098737;28;20039;-89
2021/03/25 02:47:56;;;;;;;30.70;15.15;;;;;;;26.00;17.18;98627.69;5102490;28;20019;-89
2021/03/25 02:50:31;;;;;;;31.48;14.80;;;;;;;25.90;17.04;98635.13;5089023;28;20062;-89
2021/03/25 02:53:09;;;;;;;32.40;14.93;;;;;;;26.07;16.97;98627.53;5080238;28;20032;-89
2021/03/25 02:55:35;;;;;;;29.52;13.57;;;;;;;26.25;16.89;98625.16;5107045;28;20054;-88
2021/03/25 02:58:12;;;;;;;31.00;14.60;;;;;;;26.20;16.90;98633.31;5079418;28;20472;-89
2021/03/25 03:00:47;;;;;;;32.88;15.25;;;;;;;25.83;17.48;98624.03;5097634;28;20079;-89
2021/03/25 03:03:20;;;;;;;28.80;14.07;;;;;;;25.95;17.34;98628.22;5102179;28;20019;-88
2021/03/25 03:05:49;;;;;;;34.20;15.23;;;;;;;25.83;17.28;98629.66;5098974;28;20032;-88
2021/03/25 03:08:24;;;;;;;31.17;15.27;;;;;;;25.77;17.31;98627.75;5107098;28;20031;-89
2021/03/25 03:10:53;;;;;;;30.35;15.10;;;;;;;25.88;17.26;98631.94;5102697;28;20096;-89
2021/03/25 03:13:23;;;;;;;29.05;13.70;;;;;;;25.97;17.06;98634.19;5101956;28;20147;-88
2021/03/25 03:16:03;;;;;;;28.40;12.93;;;;;;;25.90;17.14;98634.34;5087331;28;20488;-88
2021/03/25 03:18:40;;;;;;;34.17;16.08;;;;;;;25.74;17.46;98634.25;5103897;28;20031;-88
2021/03/25 03:21:21;;;;;;;32.00;15.65;;;;;;;25.59;17.46;98635.75;5097733;28;20047;-88
2021/03/25 03:23:47;;;;;;;24.55;13.18;;;;;;;25.74;17.32;98628.63;5096943;28;20036;-88
2021/03/25 03:26:19;;;;;;;27.13;12.77;;;;;;;25.64;17.41;98626.81;5079399;28;20024;-89
2021/03/25 03:28:48;;;;;;;29.95;13.38;;;;;;;25.75;17.36;98631.00;5092988;28;20029;-89
2021/03/25 03:31:25;;;;;;;30.88;14.25;;;;;;;25.90;17.10;98628.72;5109580;28;20047;-89
2021/03/25 03:33:59;;;;;;;33.70;13.93;;;;;;;26.02;16.96;98631.66;5087571;28;20046;-90
2021/03/25 03:36:25;;;;;;;29.73;14.00;;;;;;;25.92;17.32;98627.06;5099311;28;20153;-90
2021/03/25 03:38:59;;;;;;;29.70;13.52;;;;;;;25.87;17.07;98630.38;5099976;28;20115;-90
2021/03/25 03:41:47;;;;;;;27.70;12.55;;;;;;;25.75;17.17;98627.41;5102802;28;20559;-90
2021/03/25 03:44:17;;;;;;;33.53;15.20;;;;;;;25.80;17.22;98630.50;5091742;28;20480;-89
2021/03/25 03:46:45;;;;;;;28.07;13.43;;;;;;;25.96;16.94;98629.78;5105943;28;20024;-89
2021/03/25 03:49:16;;;;;;;30.73;14.80;;;;;;;26.13;16.78;98633.47;5111564;28;20067;-89
2021/03/25 03:51:51;;;;;;;;;;;;;;;25.99;17.29;98631.72;5105715;28;20032;-90
2021/03/25 03:54:18;;;;;;;30.00;15.02;;;;;;;26.23;16.89;98632.47;5108794;28;19955;-89
2021/03/25 03:57:00;;;;;;;35.13;16.67;;;;;;;26.04;16.99;98632.00;5100151;28;20035;-90
2021/03/25 03:59:49;;;;;;;32.33;12.73;;;;;;;25.80;17.21;98629.72;5097912;28;20089;-89
2021/03/25 04:02:42;;;;;;;30.80;15.05;;;;;;;25.92;16.97;98638.31;5095660;28;20105;-90
2021/03/25 04:05:31;;;;;;;34.08;13.88;;;;;;;25.88;16.96;98625.53;5105600;28;20035;-90
2021/03/25 04:08:07;;;;;;;31.20;14.18;;;;;;;25.83;17.15;98629.66;5095132;28;20380;-89
2021/03/25 04:10:41;;;;;;;27.80;14.07;;;;;;;25.85;17.04;98627.19;5092365;28;20034;-90
2021/03/25 04:13:16;;;;;;;29.75;14.65;;;;;;;25.87;16.96;98623.94;5100499;28;20104;-89
2021/03/25 04:15:48;;;;;;;27.67;13.55;;;;;;;25.73;17.28;98627.84;5103619;28;20031;-89
2021/03/25 04:18:16;;;;;;;34.03;14.13;;;;;;;25.86;17.13;98625.16;5083890;28;20046;-89
2021/03/25 04:20:50;;;;;;;28.00;13.68;;;;;;;25.93;17.11;98633.44;5094740;28;20032;-89
2021/03/25 04:23:20;;;;;;;31.63;14.68;;;;;;;25.81;17.22;98632.09;5093095;28;20046;-90
2021/03/25 04:25:58;;;;;;;34.55;15.48;;;;;;;25.76;17.02;98632.59;5086537;28;20029;-90
2021/03/25 04:28:37;;;;;;;28.65;13.23;;;;;;;25.91;16.87;98636.72;5079806;28;20042;-90
2021/03/25 04:31:06;;;;;;;28.67;13.07;;;;;;;25.85;16.99;98629.22;5093339;28;20379;-90
2021/03/25 04:33:36;;;;;;;28.58;13.70;;;;;;;25.86;17.21;98634.41;5102210;28;20112;-89
2021/03/25 04:36:06;;;;;;;26.83;13.55;;;;;;;25.75;17.25;98635.84;5094253;28;20419;-89
2021/03/25 04:38:37;;;;;;;23.25;11.93;;;;;;;25.63;17.24;98639.28;5093206;28;20124;-91
2021/03/25 04:41:03;;;;;;;27.60;13.90;;;;;;;25.90;17.07;98632.31;5092840;28;20039;-90
2021/03/25 04:43:30;;;;;;;33.53;14.52;;;;;;;25.91;17.08;98638.72;5093797;28;20479;-90
2021/03/25 04:46:32;;;;;;;34.22;15.52;;;;;;;25.93;17.00;98642.69;5085468;28;20464;-90
2021/03/25 04:49:07;;;;;;;32.47;14.15;;;;;;;26.05;16.79;98639.22;5050395;28;20480;-89
2021/03/25 04:51:34;;;;;;;33.42;13.95;;;;;;;25.88;16.99;98642.41;5091782;28;20510;-90
2021/03/25 04:54:19;;;;;;;29.33;13.82;;;;;;;25.84;17.36;98645.28;5081119;28;20032;-90
2021/03/25 04:56:45;;;;;;;32.88;15.38;;;;;;;25.60;17.46;98649.38;5090018;28;20070;-89
2021/03/25 04:59:12;;;;;;;30.27;14.13;;;;;;;25.28;17.99;98644.31;5093701;28;20024;-90
2021/03/25 05:01:40;;;;;;;25.70;12.25;;;;;;;25.51;17.67;98645.56;5092175;28;20063;-89
2021/03/25 05:04:06;;;;;;;33.65;15.77;;;;;;;25.73;17.22;98649.53;5087813;28;20459;-90
2021/03/25 05:06:47;;;;;;;35.42;15.57;;;;;;;25.91;17.11;98647.16;5093274;28;20047;-90
2021/03/25 05:09:15;;;;;;;32.20;15.75;;;;;;;25.82;17.29;98650.56;5087914;28;20051;-90
2021/03/25 05:11:42;;;;;;;38.53;17.35;;;;;;;25.65;17.25;98653.72;5084906;28;20131;-90
2021/03/25 05:14:21;;;;;;;35.42;16.45;;;;;;;25.86;17.18;98650.47;5100165;28;20035;-90
2021/03/25 05:16:52;;;;;;;31.42;15.63;;;;;;;25.68;17.49;98655.66;5080010;28;20509;-90
2021/03/25 05:19:43;;;;;;;38.03;18.33;;;;;;;25.38;17.74;98657.41;5099647;28;20036;-90
2021/03/25 05:22:20;;;;;;;32.42;15.27;;;;;;;25.67;17.67;98654.88;5090908;28;20487;-90
2021/03/25 05:24:51;;;;;;;29.02;13.35;;;;;;;26.06;17.14;98646.44;5087073;28;20436;-90
2021/03/25 05:27:27;;;;;;;;;;;;;;;25.87;17.51;98650.06;5051223;28;20036;-90
2021/03/25 05:29:56;;;;;;;32.05;15.63;;;;;;;25.96;17.03;98652.28;5095360;28;20014;-90
2021/03/25 05:32:28;;;;;;;35.47;15.75;;;;;;;25.77;17.57;98651.06;5100010;28;20035;-90
2021/03/25 05:34:57;;;;;;;31.15;14.20;;;;;;;26.07;17.25;98655.66;5101809;28;20105;-90
2021/03/25 05:37:23;;;;;;;34.25;16.20;;;;;;;25.72;17.90;98664.84;5098481;28;20031;-92
2021/03/25 05:39:49;;;;;;;33.85;16.60;;;;;;;25.50;17.99;98663.66;5089123;28;20036;-92
2021/03/25 05:42:15;;;;;;;35.60;15.90;;;;;;;25.26;18.16;98660.81;5103775;28;20039;-91
2021/03/25 05:45:08;;;;;;;31.10;14.05;;;;;;;25.23;18.24;98661.69;5108604;28;20084;-91
2021/03/25 05:48:03;;;;;;;33.38;16.95;;;;;;;25.00;18.44;98664.47;5108598;28;20078;-91
2021/03/25 05:51:03;;;;;;;34.65;16.60;;;;;;;25.07;18.43;98667.16;5087701;28;20039;-88
2021/03/25 05:53:41;;;;;;;33.10;15.97;;;;;;;25.10;18.48;98666.31;5075605;28;20225;-89
2021/03/25 05:56:29;;;;;;;32.63;15.75;;;;;;;25.30;18.36;98660.75;5093393;28;20032;-90
2021/03/25 05:59:12;;;;;;;36.33;18.58;;;;;;;25.33;18.22;98668.34;5079656;28;20040;-92
2021/03/25 06:02:03;;;;;;;30.38;15.70;;;;;;;25.33;18.15;98666.31;5057213;28;20124;-91
2021/03/25 06:04:30;;;;;;;;;;;;;;;25.60;18.19;98671.09;5075090;28;20035;-89
2021/03/25 06:07:09;;;;;;;35.05;16.25;;;;;;;25.30;18.63;98667.16;5079790;28;19969;-89
2021/03/25 06:09:44;;;;;;;28.70;15.00;;;;;;;24.96;18.92;98680.59;5066015;28;20086;-88
2021/03/25 06:12:41;;;;;;;31.00;14.73;;;;;;;24.97;19.10;98667.34;5077398;28;20036;-90
2021/03/25 06:15:40;;;;;;;27.55;14.93;;;;;;;24.93;18.96;98675.03;5059520;28;20024;-89
2021/03/25 06:18:19;;;;;;;26.42;13.23;;;;;;;24.97;19.13;98681.41;5069182;28;20113;-90
2021/03/25 06:20:54;;;;;;;31.75;15.35;;;;;;;25.55;18.49;98672.41;5052654;28;20506;-90
2021/03/25 06:23:40;;;;;;;29.75;15.35;;;;;;;25.59;18.36;98666.69;5061203;28;20024;-88
2021/03/25 06:26:44;;;;;;;31.98;14.85;;;;;;;25.17;18.85;98674.63;5059856;28;20039;-89
2021/03/25 06:29:19;;;;;;;27.13;14.48;;;;;;;25.23;18.90;98674.94;5058455;28;20112;-86
2021/03/25 06:32:28;;;;;;;29.92;14.10;;;;;;;24.97;19.03;98685.00;5060668;28;20089;-89
2021/03/25 06:35:05;;;;;;;32.20;13.80;;;;;;;25.02;18.82;98686.56;5060442;28;20502;-92
2021/03/25 06:37:50;;;;;;;29.52;14.32;;;;;;;25.21;18.80;98683.78;5061607;28;20040;-91
2021/03/25 06:40:28;;;;;;;28.27;14.20;;;;;;;25.55;18.39;98682.84;5050334;28;20505;-88
2021/03/25 06:43:20;;;;;;;29.75;14.45;;;;;;;25.69;18.49;98683.38;5035712;28;20121;-92
2021/03/25 06:46:07;;;;;;;32.28;15.07;;;;;;;25.64;18.47;98686.69;5059252;28;20420;-92
2021/03/25 06:48:43;;;;;;;26.83;13.35;;;;;;;25.86;18.13;98693.47;5046102;28;20028;-91
2021/03/25 06:51:28;;;;;;;28.17;13.18;;;;;;;25.83;18.23;98688.72;5061416;28;20025;-90
2021/03/25 06:54:10;;;;;;;27.70;14.27;;;;;;;25.83;18.14;98691.53;5058625;28;20029;-90
2021/03/25 06:56:48;;;;;;;25.85;14.75;;;;;;;26.08;18.26;98691.84;5066770;28;20033;-90
2021/03/25 06:59:35;;;;;;;26.42;13.88;;;;;;;26.52;17.70;98701.00;5054550;28;20025;-91
2021/03/25 07:02:19;;;;;;;31.60;15.75;;;;;;;26.85;17.48;98693.44;5059285;28;20063;-90
2021/03/25 07:04:48;;;;;;;26.02;13.82;;;;;;;27.38;17.44;98692.94;5061914;28;20407;-91
2021/03/25 07:07:23;;;;;;;26.95;14.18;;;;;;;27.53;17.15;98696.19;5056877;28;20020;-91
2021/03/25 07:09:50;;;;;;;26.13;13.60;;;;;;;27.36;16.79;98707.47;5026859;28;20052;-91
2021/03/25 07:12:18;;;;;;;25.70;13.98;;;;;;;26.53;17.74;98694.94;5060105;28;20068;-87
2021/03/25 07:14:46;;;;;;;25.83;13.52;;;;;;;26.25;17.97;98692.72;5064373;28;20100;-86
2021/03/25 07:17:14;;;;;;;25.77;14.45;;;;;;;25.99;18.59;98702.88;5072673;28;20111;-87
2021/03/25 07:19:45;;;;;;;25.23;13.52;;;;;;;26.12;18.46;98693.78;5064860;28;20056;-87
2021/03/25 07:22:22;;;;;;;25.67;13.38;;;;;;;26.55;17.99;98689.66;5054376;28;20430;-87
2021/03/25 07:24:50;;;;;;;33.42;17.73;;;;;;;26.70;17.49;98702.19;5072222;28;20040;-87
2021/03/25 07:27:22;;;;;;;36.42;16.77;;;;;;;26.49;17.72;98699.84;5053771;28;20051;-88
2021/03/25 07:29:59;;;;;;;30.88;15.77;;;;;;;26.29;18.06;98701.09;5062185;28;20370;-87
2021/03/25 07:32:31;;;;;;;28.10;14.23;;;;;;;26.77;17.76;98701.25;5064565;28;20040;-88
2021/03/25 07:35:10;;;;;;;29.48;15.77;;;;;;;27.19;17.55;98705.09;5055864;28;20108;-89
2021/03/25 07:37:39;;;;;;;30.17;15.15;;;;;;;27.61;17.14;98703.25;5057152;28;20171;-88
2021/03/25 07:40:18;;;;;;;30.75;16.27;;;;;;;27.75;16.50;98697.22;5059821;28;20036;-87
2021/03/25 07:42:44;;;;;;;27.98;14.43;;;;;;;27.80;16.64;98700.28;5055925;28;20483;-87
2021/03/25 07:45:25;;;;;;;23.75;12.57;;;;;;;27.31;16.74;98705.16;5059140;28;20035;-87
2021/03/25 07:47:54;;;;;;;23.70;12.60;;;;;;;26.63;17.52;98705.16;5061153;28;20028;-88
2021/03/25 07:50:31;;;;;;;25.60;13.88;;;;;;;26.23;18.43;98700.81;5060313;28;20108;-88
2021/03/25 07:52:57;;;;;;;21.98;12.02;;;;;;;26.96;17.47;98705.22;5064117;28;20039;-87
2021/03/25 07:55:26;;;;;;;30.88;14.65;;;;;;;27.29;17.01;98709.66;5066010;28;20538;-87
2021/03/25 07:57:54;;;;;;;22.63;12.95;;;;;;;27.61;17.15;98703.25;5060580;28;20071;-88
2021/03/25 08:00:26;;;;;;;23.85;13.50;;;;;;;27.46;17.04;98713.31;5064745;28;20151;-88
2021/03/25 08:03:17;;;;;;;29.23;15.90;;;;;;;27.47;16.66;98717.72;5062230;28;20476;-87
2021/03/25 08:05:46;;;;;;;25.58;15.40;;;;;;;27.72;16.58;98726.31;5042677;28;20526;-88
2021/03/25 08:08:32;;;;;;;30.00;14.05;;;;;;;27.53;17.08;98721.59;5042338;28;20083;-88
2021/03/25 08:11:16;;;;;;;20.17;11.57;;;;;;;27.81;16.77;98715.19;5053762;28;20048;-87
2021/03/25 08:13:50;;;;;;;22.77;13.18;;;;;;;27.83;16.49;98719.16;5083187;28;20475;-87
2021/03/25 08:16:17;;;;;;;24.33;13.43;;;;;;;27.36;16.31;98717.94;5066647;28;20028;-88
2021/03/25 08:19:05;;;;;;;21.90;12.45;;;;;;;27.44;16.84;98716.56;5086011;28;20024;-87
2021/03/25 08:21:34;;;;;;;23.73;13.20;;;;;;;27.70;16.73;98715.47;5080959;28;20027;-88
2021/03/25 08:24:11;;;;;;;20.92;12.43;;;;;;;27.93;16.82;98715.25;5087455;28;20023;-87
2021/03/25 08:26:58;;;;;;;24.92;12.88;;;;;;;28.15;16.12;98714.66;5086231;28;20181;-87
2021/03/25 08:29:40;;;;;;;22.17;12.93;;;;;;;28.27;16.18;98711.09;5082710;28;20082;-87
2021/03/25 08:32:12;;;;;;;22.45;13.05;;;;;;;28.20;16.21;98702.81;5083385;28;20017;-87
2021/03/25 08:35:17;;;;;;;20.65;12.27;;;;;;;28.14;16.12;98718.75;5085112;28;20032;-88
2021/03/25 08:37:52;;;;;;;16.33;10.50;;;;;;;28.35;16.06;98713.28;5065293;28;20037;-87
2021/03/25 08:40:38;;;;;;;20.45;11.50;;;;;;;28.54;16.39;98712.28;5084105;28;20043;-87
2021/03/25 08:43:14;;;;;;;22.02;11.57;;;;;;;28.55;15.64;98715.91;5083675;28;20024;-88
2021/03/25 08:45:50;;;;;;;19.70;11.52;;;;;;;28.45;15.56;98708.56;5088290;28;20028;-88
2021/03/25 08:48:22;;;;;;;18.70;11.02;;;;;;;28.32;16.48;98714.16;5084164;28;20392;-87
2021/03/25 08:51:01;;;;;;;20.35;11.60;;;;;;;28.49;16.17;98717.72;5063806;28;20032;-87
2021/03/25 08:53:27;;;;;;;18.33;10.00;;;;;;;28.43;16.53;98711.81;5070592;28;20430;-88
2021/03/25 08:55:57;;;;;;;17.17;10.23;;;;;;;28.29;15.76;98711.44;5074092;28;20032;-87
2021/03/25 08:58:32;;;;;;;20.08;10.55;;;;;;;28.19;16.56;98712.56;5090341;28;20156;-88
2021/03/25 09:01:04;;;;;;;19.13;10.32;;;;;;;27.99;16.13;98707.84;5081480;28;20042;-87
2021/03/25 09:03:38;;;;;;;18.65;10.98;;;;;;;28.14;16.36;98713.09;5088907;28;20032;-87
2021/03/25 09:06:04;;;;;;;15.75;9.30;;;;;;;28.36;16.19;98702.75;5087359;28;20036;-87
2021/03/25 09:08:34;;;;;;;17.92;10.27;;;;;;;28.38;15.75;98701.06;5074402;28;20042;-88
2021/03/25 09:11:03;;;;;;;14.90;9.02;;;;;;;28.48;16.14;98704.81;5084961;28;20400;-88
2021/03/25 09:13:39;;;;;;;18.92;10.02;;;;;;;28.90;15.73;98703.53;5082759;28;20507;-88
2021/03/25 09:16:36;;;;;;;15.80;9.23;;;;;;;29.08;15.21;98703.75;5080697;28;20036;-88
2021/03/25 09:19:15;;;;;;;16.33;9.50;;;;;;;29.28;14.97;98701.53;5052409;28;20036;-88
2021/03/25 09:21:46;;;;;;;17.30;9.80;;;;;;;28.98;15.65;98698.47;5087100;28;20483;-88
2021/03/25 09:24:14;;;;;;;;;;;;;;;28.43;15.06;98696.91;5081719;28;20040;-88
2021/03/25 09:26:54;;;;;;;15.38;8.80;;;;;;;28.17;14.79;98689.63;5079560;28;19969;-88
2021/03/25 09:29:27;;;;;;;14.73;8.67;;;;;;;28.02;15.88;98695.69;5081166;28;20157;-89
2021/03/25 09:31:55;;;;;;;13.77;8.35;;;;;;;27.95;16.31;98693.03;5082681;28;20100;-90
2021/03/25 09:34:24;;;;;;;12.65;8.65;;;;;;;28.10;16.26;98693.41;5080874;28;20480;-89
2021/03/25 09:37:12;;;;;;;13.50;8.10;;;;;;;28.34;16.41;98682.63;5081874;28;20075;-89
2021/03/25 09:39:39;;;;;;;14.95;9.48;;;;;;;28.29;15.83;98686.00;5079996;28;20089;-89
2021/03/25 09:42:25;;;;;;;12.90;7.50;;;;;;;27.97;15.42;98692.56;5078924;28;20044;-89
2021/03/25 09:44:53;;;;;;;16.80;9.30;;;;;;;27.97;15.66;98682.06;5082658;28;20025;-88
2021/03/25 09:47:36;;;;;;;12.23;7.45;;;;;;;28.37;16.10;98681.75;5080484;28;20092;-88
2021/03/25 09:50:02;;;;;;;12.05;7.57;;;;;;;28.90;15.58;98685.78;5082393;28;20031;-89
2021/03/25 09:52:35;;;;;;;13.85;8.05;;;;;;;28.78;14.60;98692.25;5068863;28;20035;-89
2021/03/25 09:55:01;;;;;;;13.55;8.00;;;;;;;28.50;14.88;98691.03;5082100;28;20040;-88
2021/03/25 09:57:37;;;;;;;15.02;8.07;;;;;;;28.93;15.59;98690.53;5067192;28;20028;-89
2021/03/25 10:00:26;;;;;;;13.60;8.77;;;;;;;28.96;13.81;98683.97;5079628;28;20091;-89
2021/03/25 10:02:55;;;;;;;14.30;8.52;;;;;;;28.91;14.91;98682.53;5082575;28;20508;-89
2021/03/25 10:05:24;;;;;;;13.95;8.30;;;;;;;28.12;15.26;98676.84;5081885;28;20036;-89
2021/03/25 10:07:52;;;;;;;13.85;8.10;;;;;;;28.30;14.98;98681.97;5081966;28;20032;-89
2021/03/25 10:10:21;;;;;;;16.83;9.38;;;;;;;28.78;15.03;98681.72;5065126;28;20036;-89
2021/03/25 10:12:47;;;;;;;19.27;11.45;;;;;;;28.24;15.03;98683.78;5066178;28;20553;-89
2021/03/25 10:15:32;;;;;;;22.98;13.98;;;;;;;27.68;14.56;98672.78;5064925;28;20396;-87
2021/03/25 10:18:06;;;;;;;13.85;8.73;;;;;;;27.85;15.15;98684.84;5080737;28;20063;-88
2021/03/25 10:20:53;;;;;;;14.82;9.50;;;;;;;27.87;14.55;98677.50;5084528;28;20110;-89
2021/03/25 10:23:25;;;;;;;12.27;7.97;;;;;;;28.09;15.20;98680.56;5076708;28;20078;-89
2021/03/25 10:25:55;;;;;;;13.65;8.23;;;;;;;28.68;15.05;98674.38;5078808;28;20032;-89
2021/03/25 10:28:27;;;;;;;14.73;9.48;;;;;;;28.52;14.09;98672.38;5079494;28;20040;-89
2021/03/25 10:31:05;;;;;;;15.68;8.98;;;;;;;28.79;14.14;98682.50;5083153;28;20031;-89
2021/03/25 10:33:32;;;;;;;14.35;8.27;;;;;;;28.67;14.10;98678.44;5082306;28;20038;-89
2021/03/25 10:36:10;;;;;;;12.10;7.65;;;;;;;28.75;13.86;98682.63;5083861;28;20071;-89
2021/03/25 10:38:54;;;;;;;14.38;8.90;;;;;;;28.36;13.79;98677.34;5080386;28;20090;-89
2021/03/25 10:41:24;;;;;;;15.38;9.88;;;;;;;28.07;14.74;98677.41;5083605;28;20052;-89
2021/03/25 10:43:50;;;;;;;22.27;12.27;;;;;;;27.38;14.45;98674.00;5083001;28;20046;-89
2021/03/25 10:46:34;;;;;;;23.23;14.73;;;;;;;24.25;16.56;98680.81;5083715;28;20499;-89
2021/03/25 10:49:06;;;;;;;21.42;14.05;;;;;;;23.85;17.41;98676.09;5078303;28;20055;-89
2021/03/25 10:51:41;;;;;;;25.08;15.55;;;;;;;23.15;19.23;98669.94;5074625;28;20028;-89
2021/03/25 10:54:37;;;;;;;28.77;16.02;;;;;;;23.89;17.15;98674.81;5078352;28;20043;-88
2021/03/25 10:57:18;;;;;;;15.95;9.52;;;;;;;25.86;16.32;98670.16;5077614;28;20498;-89
2021/03/25 11:00:01;;;;;;;21.83;13.52;;;;;;;26.26;15.68;98666.16;5078705;28;20407;-89
2021/03/25 11:02:30;;;;;;;24.55;14.88;;;;;;;24.49;17.93;98671.25;5069775;28;20031;-89
2021/03/25 11:05:18;;;;;;;24.52;15.52;;;;;;;23.93;18.67;98658.75;5084787;28;20391;-89
2021/03/25 11:07:47;;;;;;;18.55;10.90;;;;;;;25.85;16.32;98652.53;5062210;28;20484;-89
2021/03/25 11:10:35;;;;;;;23.98;13.95;;;;;;;26.37;15.73;98657.50;5056348;28;20434;-90
2021/03/25 11:13:03;;;;;;;22.90;13.07;;;;;;;27.12;15.13;98657.34;5056651;28;20032;-90
2021/03/25 11:15:34;;;;;;;21.92;13.43;;;;;;;26.81;15.82;98656.09;5080683;28;20118;-90
2021/03/25 11:18:36;;;;;;;16.73;9.57;;;;;;;27.73;14.50;98646.06;5075137;28;20054;-91
2021/03/25 11:21:05;;;;;;;18.20;10.18;;;;;;;28.83;14.97;98646.44;5036743;28;20041;-91
2021/03/25 11:23:33;;;;;;;12.32;8.13;;;;;;;29.33;14.58;98641.53;5082146;28;20036;-91
2021/03/25 11:26:05;;;;;;;16.88;9.68;;;;;;;29.76;13.47;98637.22;5098450;28;20697;-91
2021/03/25 11:28:37;;;;;;;13.85;8.23;;;;;;;29.21;13.13;98642.34;5069190;28;20086;-91
2021/03/25 11:31:24;;;;;;;16.77;9.77;;;;;;;28.25;13.15;98640.94;5082675;28;20064;-91
2021/03/25 11:33:51;;;;;;;13.52;8.55;;;;;;;29.00;14.52;98645.06;5084183;28;20040;-91
2021/03/25 11:36:37;;;;;;;15.07;8.65;;;;;;;29.46;13.81;98637.84;5074016;28;20020;-89
2021/03/25 11:39:17;;;;;;;16.40;9.57;;;;;;;29.74;13.24;98625.53;5083869;28;20036;-91
2021/03/25 11:41:45;;;;;;;17.77;10.45;;;;;;;29.57;13.89;98632.63;5063260;28;22671;-91
2021/03/25 11:44:31;;;;;;;17.27;10.23;;;;;;;29.36;13.40;98628.50;5088611;28;20037;-91
2021/03/25 11:47:30;;;;;;;23.08;12.63;;;;;;;27.83;12.99;98630.88;5089115;28;20036;-90
2021/03/25 11:49:56;;;;;;;16.67;10.88;;;;;;;27.48;15.48;98627.00;5071998;28;20032;-90
2021/03/25 11:52:23;;;;;;;25.40;15.20;;;;;;;26.23;15.74;98632.47;5087314;28;20029;-90
2021/03/25 11:55:00;;;;;;;17.08;11.57;;;;;;;26.41;15.66;98628.03;5094076;28;20040;-90
2021/03/25 11:57:33;;;;;;;17.67;9.45;;;;;;;27.83;15.33;98620.38;5084325;28;20046;-91